sensor_id;sensor_type;location;lat;lon;timestamp;temperature;humidity
7254;DHT22;4060;49.186;9.226;2023-09-19T00:01:08;23.20;59.60
7254;DHT22;4060;49.186;9.226;2023-09-19T00:03:39;23.20;59.60
7254;DHT22;4060;49.186;9.226;2023-09-19T00:06:09;23.10;59.50
7254;DHT22;4060;49.186;9.226;2023-09-19T00:08:40;23.20;59.60
7254;DHT22;4060;49.186;9.226;2023-09-19T00:11:14;23.10;59.60
7254;DHT22;4060;49.186;9.226;2023-09-19T00:13:44;23.10;59.60
7254;DHT22;4060;49.186;9.226;2023-09-19T00:16:14;23.10;59.60
7254;DHT22;4060;49.186;9.226;2023-09-19T00:18:46;23.10;59.70
7254;DHT22;4060;49.186;9.226;2023-09-19T00:21:16;23.10;59.70
7254;DHT22;4060;49.186;9.226;2023-09-19T00:23:47;23.10;59.70
7254;DHT22;4060;49.186;9.226;2023-09-19T00:26:20;23.10;59.70
7254;DHT22;4060;49.186;9.226;2023-09-19T00:28:58;23.10;59.80
7254;DHT22;4060;49.186;9.226;2023-09-19T00:31:32;23.10;59.80
7254;DHT22;4060;49.186;9.226;2023-09-19T00:34:04;23.00;59.70
7254;DHT22;4060;49.186;9.226;2023-09-19T00:36:36;23.00;59.70
7254;DHT22;4060;49.186;9.226;2023-09-19T00:39:06;23.00;59.80
7254;DHT22;4060;49.186;9.226;2023-09-19T00:41:39;23.00;59.80
7254;DHT22;4060;49.186;9.226;2023-09-19T00:44:11;23.00;59.80
7254;DHT22;4060;49.186;9.226;2023-09-19T00:46:42;23.00;59.80
7254;DHT22;4060;49.186;9.226;2023-09-19T00:49:15;23.00;59.80
7254;DHT22;4060;49.186;9.226;2023-09-19T00:51:47;23.00;59.80
7254;DHT22;4060;49.186;9.226;2023-09-19T00:54:18;23.00;59.80
7254;DHT22;4060;49.186;9.226;2023-09-19T00:56:50;23.00;59.90
7254;DHT22;4060;49.186;9.226;2023-09-19T00:59:21;23.00;59.90
7254;DHT22;4060;49.186;9.226;2023-09-19T01:01:53;23.00;59.90
7254;DHT22;4060;49.186;9.226;2023-09-19T01:04:23;23.00;59.90
7254;DHT22;4060;49.186;9.226;2023-09-19T01:06:55;22.90;59.80
7254;DHT22;4060;49.186;9.226;2023-09-19T01:09:25;22.90;59.90
7254;DHT22;4060;49.186;9.226;2023-09-19T01:12:02;22.90;59.90
7254;DHT22;4060;49.186;9.226;2023-09-19T01:14:42;22.90;60.00
7254;DHT22;4060;49.186;9.226;2023-09-19T01:17:26;22.90;60.00
7254;DHT22;4060;49.186;9.226;2023-09-19T01:20:18;22.90;60.00
7254;DHT22;4060;49.186;9.226;2023-09-19T01:23:12;22.90;60.10
7254;DHT22;4060;49.186;9.226;2023-09-19T01:26:10;22.90;60.20
7254;DHT22;4060;49.186;9.226;2023-09-19T01:29:11;22.80;60.00
7254;DHT22;4060;49.186;9.226;2023-09-19T01:31:45;22.80;60.00
7254;DHT22;4060;49.186;9.226;2023-09-19T01:34:16;22.80;60.00
7254;DHT22;4060;49.186;9.226;2023-09-19T01:36:45;22.80;60.10
7254;DHT22;4060;49.186;9.226;2023-09-19T01:39:15;22.80;60.10
7254;DHT22;4060;49.186;9.226;2023-09-19T01:41:58;22.80;60.10
7254;DHT22;4060;49.186;9.226;2023-09-19T01:44:51;22.80;60.20
7254;DHT22;4060;49.186;9.226;2023-09-19T01:47:31;22.80;60.20
7254;DHT22;4060;49.186;9.226;2023-09-19T01:50:21;22.80;60.30
7254;DHT22;4060;49.186;9.226;2023-09-19T01:52:57;22.80;60.40
7254;DHT22;4060;49.186;9.226;2023-09-19T01:55:29;22.80;60.30
7254;DHT22;4060;49.186;9.226;2023-09-19T01:58:06;22.70;60.10
7254;DHT22;4060;49.186;9.226;2023-09-19T02:00:38;22.70;60.30
7254;DHT22;4060;49.186;9.226;2023-09-19T02:03:12;22.70;60.10
7254;DHT22;4060;49.186;9.226;2023-09-19T02:05:49;22.70;60.20
7254;DHT22;4060;49.186;9.226;2023-09-19T02:08:21;22.70;60.20
7254;DHT22;4060;49.186;9.226;2023-09-19T02:10:52;22.70;60.10
7254;DHT22;4060;49.186;9.226;2023-09-19T02:13:22;22.70;60.10
7254;DHT22;4060;49.186;9.226;2023-09-19T02:15:54;22.70;60.20
7254;DHT22;4060;49.186;9.226;2023-09-19T02:18:25;22.70;60.10
7254;DHT22;4060;49.186;9.226;2023-09-19T02:20:56;22.70;60.20
7254;DHT22;4060;49.186;9.226;2023-09-19T02:23:25;22.70;60.20
7254;DHT22;4060;49.186;9.226;2023-09-19T02:25:55;22.70;60.20
7254;DHT22;4060;49.186;9.226;2023-09-19T02:28:24;22.70;60.30
7254;DHT22;4060;49.186;9.226;2023-09-19T02:30:57;22.60;60.10
7254;DHT22;4060;49.186;9.226;2023-09-19T02:33:28;22.60;60.10
7254;DHT22;4060;49.186;9.226;2023-09-19T02:36:00;22.60;60.20
7254;DHT22;4060;49.186;9.226;2023-09-19T02:38:30;22.60;60.30
7254;DHT22;4060;49.186;9.226;2023-09-19T02:41:00;22.60;60.30
7254;DHT22;4060;49.186;9.226;2023-09-19T02:43:30;22.60;60.20
7254;DHT22;4060;49.186;9.226;2023-09-19T02:45:59;22.60;60.10
7254;DHT22;4060;49.186;9.226;2023-09-19T02:48:33;22.60;60.20
7254;DHT22;4060;49.186;9.226;2023-09-19T02:51:09;22.60;60.20
7254;DHT22;4060;49.186;9.226;2023-09-19T02:53:38;22.60;60.30
7254;DHT22;4060;49.186;9.226;2023-09-19T02:56:09;22.60;60.20
7254;DHT22;4060;49.186;9.226;2023-09-19T02:58:40;22.60;60.20
7254;DHT22;4060;49.186;9.226;2023-09-19T03:01:10;22.50;60.10
7254;DHT22;4060;49.186;9.226;2023-09-19T03:03:42;22.50;60.10
7254;DHT22;4060;49.186;9.226;2023-09-19T03:06:12;22.50;60.10
7254;DHT22;4060;49.186;9.226;2023-09-19T03:08:42;22.50;60.20
7254;DHT22;4060;49.186;9.226;2023-09-19T03:11:12;22.50;60.10
7254;DHT22;4060;49.186;9.226;2023-09-19T03:13:43;22.50;60.10
7254;DHT22;4060;49.186;9.226;2023-09-19T03:16:13;22.50;60.00
7254;DHT22;4060;49.186;9.226;2023-09-19T03:18:46;22.50;60.10
7254;DHT22;4060;49.186;9.226;2023-09-19T03:21:16;22.50;60.20
7254;DHT22;4060;49.186;9.226;2023-09-19T03:23:46;22.50;60.20
7254;DHT22;4060;49.186;9.226;2023-09-19T03:26:16;22.50;60.20
7254;DHT22;4060;49.186;9.226;2023-09-19T03:28:46;22.50;60.30
7254;DHT22;4060;49.186;9.226;2023-09-19T03:31:16;22.50;60.30
7254;DHT22;4060;49.186;9.226;2023-09-19T03:33:48;22.40;60.20
7254;DHT22;4060;49.186;9.226;2023-09-19T03:36:17;22.40;60.30
7254;DHT22;4060;49.186;9.226;2023-09-19T03:38:47;22.40;60.30
7254;DHT22;4060;49.186;9.226;2023-09-19T03:41:16;22.40;60.40
7254;DHT22;4060;49.186;9.226;2023-09-19T03:43:47;22.40;60.50
7254;DHT22;4060;49.186;9.226;2023-09-19T03:46:16;22.40;60.50
7254;DHT22;4060;49.186;9.226;2023-09-19T03:48:49;22.40;60.50
7254;DHT22;4060;49.186;9.226;2023-09-19T03:51:23;22.40;60.70
7254;DHT22;4060;49.186;9.226;2023-09-19T03:53:52;22.40;60.70
7254;DHT22;4060;49.186;9.226;2023-09-19T03:56:20;22.40;60.70
7254;DHT22;4060;49.186;9.226;2023-09-19T03:58:50;22.40;60.80
7254;DHT22;4060;49.186;9.226;2023-09-19T04:01:20;22.30;60.60
7254;DHT22;4060;49.186;9.226;2023-09-19T04:03:52;22.40;60.70
7254;DHT22;4060;49.186;9.226;2023-09-19T04:06:21;22.30;60.70
7254;DHT22;4060;49.186;9.226;2023-09-19T04:08:51;22.30;60.70
7254;DHT22;4060;49.186;9.226;2023-09-19T04:11:21;22.30;60.80
7254;DHT22;4060;49.186;9.226;2023-09-19T04:13:51;22.30;60.80
7254;DHT22;4060;49.186;9.226;2023-09-19T04:16:21;22.30;60.80
7254;DHT22;4060;49.186;9.226;2023-09-19T04:18:52;22.30;60.90
7254;DHT22;4060;49.186;9.226;2023-09-19T04:21:22;22.30;60.80
7254;DHT22;4060;49.186;9.226;2023-09-19T04:23:52;22.30;60.90
7254;DHT22;4060;49.186;9.226;2023-09-19T04:26:22;22.30;60.90
7254;DHT22;4060;49.186;9.226;2023-09-19T04:28:53;22.30;61.00
7254;DHT22;4060;49.186;9.226;2023-09-19T04:31:23;22.30;61.00
7254;DHT22;4060;49.186;9.226;2023-09-19T04:33:54;22.30;61.00
7254;DHT22;4060;49.186;9.226;2023-09-19T04:36:26;22.30;61.00
7254;DHT22;4060;49.186;9.226;2023-09-19T04:38:55;22.30;61.00
7254;DHT22;4060;49.186;9.226;2023-09-19T04:41:25;22.20;60.90
7254;DHT22;4060;49.186;9.226;2023-09-19T04:43:54;22.30;61.10
7254;DHT22;4060;49.186;9.226;2023-09-19T04:46:25;22.30;61.10
7254;DHT22;4060;49.186;9.226;2023-09-19T04:48:56;22.20;61.00
7254;DHT22;4060;49.186;9.226;2023-09-19T04:51:26;22.20;61.00
7254;DHT22;4060;49.186;9.226;2023-09-19T04:54:00;22.20;61.00
7254;DHT22;4060;49.186;9.226;2023-09-19T04:56:30;22.20;61.10
7254;DHT22;4060;49.186;9.226;2023-09-19T04:59:00;22.20;61.10
7254;DHT22;4060;49.186;9.226;2023-09-19T05:01:30;22.20;61.10
7254;DHT22;4060;49.186;9.226;2023-09-19T05:04:02;22.20;61.10
7254;DHT22;4060;49.186;9.226;2023-09-19T05:06:32;22.20;61.20
7254;DHT22;4060;49.186;9.226;2023-09-19T05:09:03;22.20;61.20
7254;DHT22;4060;49.186;9.226;2023-09-19T05:11:32;22.20;61.20
7254;DHT22;4060;49.186;9.226;2023-09-19T05:14:01;22.20;61.30
7254;DHT22;4060;49.186;9.226;2023-09-19T05:16:31;22.20;61.30
7254;DHT22;4060;49.186;9.226;2023-09-19T05:19:02;22.20;61.30
7254;DHT22;4060;49.186;9.226;2023-09-19T05:21:31;22.20;61.40
7254;DHT22;4060;49.186;9.226;2023-09-19T05:24:00;22.20;61.40
7254;DHT22;4060;49.186;9.226;2023-09-19T05:26:30;22.20;61.40
7254;DHT22;4060;49.186;9.226;2023-09-19T05:28:59;22.20;61.40
7254;DHT22;4060;49.186;9.226;2023-09-19T05:31:30;22.20;61.50
7254;DHT22;4060;49.186;9.226;2023-09-19T05:34:01;22.10;61.40
7254;DHT22;4060;49.186;9.226;2023-09-19T05:36:30;22.10;61.40
7254;DHT22;4060;49.186;9.226;2023-09-19T05:39:00;22.10;61.50
7254;DHT22;4060;49.186;9.226;2023-09-19T05:41:30;22.10;61.50
7254;DHT22;4060;49.186;9.226;2023-09-19T05:44:01;22.10;61.50
7254;DHT22;4060;49.186;9.226;2023-09-19T05:46:30;22.10;61.60
7254;DHT22;4060;49.186;9.226;2023-09-19T05:49:01;22.10;61.60
7254;DHT22;4060;49.186;9.226;2023-09-19T05:51:31;22.10;61.60
7254;DHT22;4060;49.186;9.226;2023-09-19T05:54:00;22.10;61.70
7254;DHT22;4060;49.186;9.226;2023-09-19T05:56:32;22.10;61.70
7254;DHT22;4060;49.186;9.226;2023-09-19T05:59:01;22.10;61.70
7254;DHT22;4060;49.186;9.226;2023-09-19T06:01:32;22.10;61.60
7254;DHT22;4060;49.186;9.226;2023-09-19T06:04:03;22.10;61.70
7254;DHT22;4060;49.186;9.226;2023-09-19T06:06:33;22.10;61.70
7254;DHT22;4060;49.186;9.226;2023-09-19T06:09:07;22.10;61.70
7254;DHT22;4060;49.186;9.226;2023-09-19T06:11:37;22.10;61.80
7254;DHT22;4060;49.186;9.226;2023-09-19T06:14:07;22.10;61.80
7254;DHT22;4060;49.186;9.226;2023-09-19T06:16:37;22.10;61.80
7254;DHT22;4060;49.186;9.226;2023-09-19T06:19:10;22.10;61.90
7254;DHT22;4060;49.186;9.226;2023-09-19T06:21:40;22.00;61.80
7254;DHT22;4060;49.186;9.226;2023-09-19T06:24:11;22.00;61.80
7254;DHT22;4060;49.186;9.226;2023-09-19T06:26:40;22.00;61.80
7254;DHT22;4060;49.186;9.226;2023-09-19T06:29:11;22.00;61.80
7254;DHT22;4060;49.186;9.226;2023-09-19T06:31:42;22.00;62.70
7254;DHT22;4060;49.186;9.226;2023-09-19T06:34:13;22.00;62.00
7254;DHT22;4060;49.186;9.226;2023-09-19T06:36:44;22.00;62.10
7254;DHT22;4060;49.186;9.226;2023-09-19T06:39:14;22.00;62.00
7254;DHT22;4060;49.186;9.226;2023-09-19T06:41:43;22.00;62.10
7254;DHT22;4060;49.186;9.226;2023-09-19T06:44:19;22.00;62.20
7254;DHT22;4060;49.186;9.226;2023-09-19T06:46:49;22.00;62.30
7254;DHT22;4060;49.186;9.226;2023-09-19T06:49:21;22.00;62.40
7254;DHT22;4060;49.186;9.226;2023-09-19T06:51:50;22.00;62.30
7254;DHT22;4060;49.186;9.226;2023-09-19T06:54:20;22.00;62.30
7254;DHT22;4060;49.186;9.226;2023-09-19T06:56:49;22.00;62.40
7254;DHT22;4060;49.186;9.226;2023-09-19T06:59:19;22.00;62.50
7254;DHT22;4060;49.186;9.226;2023-09-19T07:01:49;22.00;62.40
7254;DHT22;4060;49.186;9.226;2023-09-19T07:04:20;22.00;62.50
7254;DHT22;4060;49.186;9.226;2023-09-19T07:06:50;22.00;62.40
7254;DHT22;4060;49.186;9.226;2023-09-19T07:09:19;22.00;62.50
7254;DHT22;4060;49.186;9.226;2023-09-19T07:11:49;22.00;62.50
7254;DHT22;4060;49.186;9.226;2023-09-19T07:14:19;22.10;62.60
7254;DHT22;4060;49.186;9.226;2023-09-19T07:16:49;22.00;62.50
7254;DHT22;4060;49.186;9.226;2023-09-19T07:19:20;22.00;62.50
7254;DHT22;4060;49.186;9.226;2023-09-19T07:21:50;22.10;62.70
7254;DHT22;4060;49.186;9.226;2023-09-19T07:24:19;22.10;62.80
7254;DHT22;4060;49.186;9.226;2023-09-19T07:26:51;22.10;62.90
7254;DHT22;4060;49.186;9.226;2023-09-19T07:29:20;22.00;62.80
7254;DHT22;4060;49.186;9.226;2023-09-19T07:31:50;22.10;63.00
7254;DHT22;4060;49.186;9.226;2023-09-19T07:34:22;22.10;62.90
7254;DHT22;4060;49.186;9.226;2023-09-19T07:36:52;22.10;62.90
7254;DHT22;4060;49.186;9.226;2023-09-19T07:39:21;22.10;62.80
7254;DHT22;4060;49.186;9.226;2023-09-19T07:41:51;22.10;62.70
7254;DHT22;4060;49.186;9.226;2023-09-19T07:44:21;22.10;62.60
7254;DHT22;4060;49.186;9.226;2023-09-19T07:46:52;22.10;62.70
7254;DHT22;4060;49.186;9.226;2023-09-19T07:49:24;22.10;62.60
7254;DHT22;4060;49.186;9.226;2023-09-19T07:51:53;22.20;62.70
7254;DHT22;4060;49.186;9.226;2023-09-19T07:54:24;22.20;62.60
7254;DHT22;4060;49.186;9.226;2023-09-19T07:56:58;22.20;62.70
7254;DHT22;4060;49.186;9.226;2023-09-19T07:59:28;22.20;62.90
7254;DHT22;4060;49.186;9.226;2023-09-19T08:01:58;22.20;62.80
7254;DHT22;4060;49.186;9.226;2023-09-19T08:04:35;22.20;62.80
7254;DHT22;4060;49.186;9.226;2023-09-19T08:07:04;22.30;63.00
7254;DHT22;4060;49.186;9.226;2023-09-19T08:09:33;22.30;62.90
7254;DHT22;4060;49.186;9.226;2023-09-19T08:12:06;22.30;62.80
7254;DHT22;4060;49.186;9.226;2023-09-19T08:14:37;22.40;62.90
7254;DHT22;4060;49.186;9.226;2023-09-19T08:17:08;22.40;62.80
7254;DHT22;4060;49.186;9.226;2023-09-19T08:19:39;22.50;62.70
7254;DHT22;4060;49.186;9.226;2023-09-19T08:22:09;22.50;62.60
7254;DHT22;4060;49.186;9.226;2023-09-19T08:24:39;22.50;62.60
7254;DHT22;4060;49.186;9.226;2023-09-19T08:27:10;22.60;62.60
7254;DHT22;4060;49.186;9.226;2023-09-19T08:29:39;22.60;62.40
7254;DHT22;4060;49.186;9.226;2023-09-19T08:32:09;22.60;62.30
7254;DHT22;4060;49.186;9.226;2023-09-19T08:34:41;22.70;62.30
7254;DHT22;4060;49.186;9.226;2023-09-19T08:37:10;22.70;62.00
7254;DHT22;4060;49.186;9.226;2023-09-19T08:39:39;22.70;61.80
7254;DHT22;4060;49.186;9.226;2023-09-19T08:42:09;22.70;61.50
7254;DHT22;4060;49.186;9.226;2023-09-19T08:44:40;22.80;61.30
7254;DHT22;4060;49.186;9.226;2023-09-19T08:47:10;22.80;60.90
7254;DHT22;4060;49.186;9.226;2023-09-19T08:49:53;22.80;60.60
7254;DHT22;4060;49.186;9.226;2023-09-19T08:52:39;22.80;60.20
7254;DHT22;4060;49.186;9.226;2023-09-19T08:55:13;22.90;60.10
7254;DHT22;4060;49.186;9.226;2023-09-19T08:57:50;22.90;59.90
7254;DHT22;4060;49.186;9.226;2023-09-19T09:00:21;22.90;59.70
7254;DHT22;4060;49.186;9.226;2023-09-19T09:02:52;22.90;59.60
7254;DHT22;4060;49.186;9.226;2023-09-19T09:05:24;22.90;59.50
7254;DHT22;4060;49.186;9.226;2023-09-19T09:07:54;22.90;59.30
7254;DHT22;4060;49.186;9.226;2023-09-19T09:10:25;22.90;59.20
7254;DHT22;4060;49.186;9.226;2023-09-19T09:12:55;22.90;59.10
7254;DHT22;4060;49.186;9.226;2023-09-19T09:15:24;22.90;59.00
7254;DHT22;4060;49.186;9.226;2023-09-19T09:17:54;22.90;58.90
7254;DHT22;4060;49.186;9.226;2023-09-19T09:20:26;22.90;58.80
7254;DHT22;4060;49.186;9.226;2023-09-19T09:22:56;22.90;58.70
7254;DHT22;4060;49.186;9.226;2023-09-19T09:25:48;22.80;58.60
7254;DHT22;4060;49.186;9.226;2023-09-19T09:28:24;22.80;58.50
7254;DHT22;4060;49.186;9.226;2023-09-19T09:30:54;22.80;58.60
7254;DHT22;4060;49.186;9.226;2023-09-19T09:33:23;22.80;58.50
7254;DHT22;4060;49.186;9.226;2023-09-19T09:35:57;22.80;58.50
7254;DHT22;4060;49.186;9.226;2023-09-19T09:38:28;22.80;58.50
7254;DHT22;4060;49.186;9.226;2023-09-19T09:41:00;22.70;58.50
7254;DHT22;4060;49.186;9.226;2023-09-19T09:43:37;22.70;58.50
7254;DHT22;4060;49.186;9.226;2023-09-19T09:46:12;22.70;58.50
7254;DHT22;4060;49.186;9.226;2023-09-19T09:48:59;22.70;58.40
7254;DHT22;4060;49.186;9.226;2023-09-19T09:51:49;22.70;58.30
7254;DHT22;4060;49.186;9.226;2023-09-19T09:54:29;22.70;58.30
7254;DHT22;4060;49.186;9.226;2023-09-19T09:57:04;22.70;58.70
7254;DHT22;4060;49.186;9.226;2023-09-19T09:59:50;22.70;58.20
7254;DHT22;4060;49.186;9.226;2023-09-19T10:02:26;22.70;58.20
7254;DHT22;4060;49.186;9.226;2023-09-19T10:05:00;22.80;58.20
7254;DHT22;4060;49.186;9.226;2023-09-19T10:07:51;22.80;58.10
7254;DHT22;4060;49.186;9.226;2023-09-19T10:10:32;22.80;58.00
7254;DHT22;4060;49.186;9.226;2023-09-19T10:13:21;22.80;57.70
7254;DHT22;4060;49.186;9.226;2023-09-19T10:15:56;22.80;57.70
7254;DHT22;4060;49.186;9.226;2023-09-19T10:18:34;22.80;57.50
7254;DHT22;4060;49.186;9.226;2023-09-19T10:21:06;22.90;57.60
7254;DHT22;4060;49.186;9.226;2023-09-19T10:23:41;22.90;57.50
7254;DHT22;4060;49.186;9.226;2023-09-19T10:26:13;22.90;57.30
7254;DHT22;4060;49.186;9.226;2023-09-19T10:28:49;22.90;57.20
7254;DHT22;4060;49.186;9.226;2023-09-19T10:31:20;22.90;57.10
7254;DHT22;4060;49.186;9.226;2023-09-19T10:33:52;22.90;57.00
7254;DHT22;4060;49.186;9.226;2023-09-19T10:36:25;23.00;56.90
7254;DHT22;4060;49.186;9.226;2023-09-19T10:38:58;23.00;56.80
7254;DHT22;4060;49.186;9.226;2023-09-19T10:41:30;23.00;56.50
7254;DHT22;4060;49.186;9.226;2023-09-19T10:44:04;23.00;56.40
7254;DHT22;4060;49.186;9.226;2023-09-19T10:46:33;23.00;56.20
7254;DHT22;4060;49.186;9.226;2023-09-19T10:49:04;23.10;56.20
7254;DHT22;4060;49.186;9.226;2023-09-19T10:51:41;23.10;56.00
7254;DHT22;4060;49.186;9.226;2023-09-19T10:54:16;23.10;55.80
7254;DHT22;4060;49.186;9.226;2023-09-19T10:56:49;23.10;55.60
7254;DHT22;4060;49.186;9.226;2023-09-19T10:59:19;23.10;55.40
7254;DHT22;4060;49.186;9.226;2023-09-19T11:01:50;23.10;55.20
7254;DHT22;4060;49.186;9.226;2023-09-19T11:04:24;23.10;55.00
7254;DHT22;4060;49.186;9.226;2023-09-19T11:07:11;23.20;54.80
7254;DHT22;4060;49.186;9.226;2023-09-19T11:09:47;23.20;54.50
7254;DHT22;4060;49.186;9.226;2023-09-19T11:18:55;23.20;54.00
7254;DHT22;4060;49.186;9.226;2023-09-19T11:21:54;23.20;53.90
7254;DHT22;4060;49.186;9.226;2023-09-19T11:24:30;23.20;53.80
7254;DHT22;4060;49.186;9.226;2023-09-19T11:27:19;23.30;53.80
7254;DHT22;4060;49.186;9.226;2023-09-19T11:29:48;23.20;53.60
7254;DHT22;4060;49.186;9.226;2023-09-19T11:36:01;23.30;53.50
7254;DHT22;4060;49.186;9.226;2023-09-19T11:38:58;23.30;53.50
7254;DHT22;4060;49.186;9.226;2023-09-19T11:41:40;23.40;53.40
7254;DHT22;4060;49.186;9.226;2023-09-19T11:44:37;23.40;53.40
7254;DHT22;4060;49.186;9.226;2023-09-19T11:47:09;23.40;53.30
7254;DHT22;4060;49.186;9.226;2023-09-19T11:49:41;23.40;53.40
7254;DHT22;4060;49.186;9.226;2023-09-19T11:52:10;23.50;53.30
7254;DHT22;4060;49.186;9.226;2023-09-19T11:54:42;23.50;53.20
7254;DHT22;4060;49.186;9.226;2023-09-19T11:57:21;23.50;53.10
7254;DHT22;4060;49.186;9.226;2023-09-19T11:59:54;23.50;52.90
7254;DHT22;4060;49.186;9.226;2023-09-19T12:02:40;23.50;52.80
7254;DHT22;4060;49.186;9.226;2023-09-19T12:05:11;23.60;52.60
7254;DHT22;4060;49.186;9.226;2023-09-19T12:07:45;23.60;52.60
7254;DHT22;4060;49.186;9.226;2023-09-19T12:10:15;23.60;52.40
7254;DHT22;4060;49.186;9.226;2023-09-19T12:12:49;23.60;52.30
7254;DHT22;4060;49.186;9.226;2023-09-19T12:15:27;23.70;52.30
7254;DHT22;4060;49.186;9.226;2023-09-19T12:18:02;23.70;52.00
7254;DHT22;4060;49.186;9.226;2023-09-19T12:20:44;23.70;51.90
7254;DHT22;4060;49.186;9.226;2023-09-19T12:23:14;23.80;51.70
7254;DHT22;4060;49.186;9.226;2023-09-19T12:25:43;23.80;51.60
7254;DHT22;4060;49.186;9.226;2023-09-19T12:28:15;23.80;51.40
7254;DHT22;4060;49.186;9.226;2023-09-19T12:30:49;23.80;51.30
7254;DHT22;4060;49.186;9.226;2023-09-19T12:33:22;23.80;51.20
7254;DHT22;4060;49.186;9.226;2023-09-19T12:35:52;23.80;51.00
7254;DHT22;4060;49.186;9.226;2023-09-19T12:38:26;23.90;51.00
7254;DHT22;4060;49.186;9.226;2023-09-19T12:40:57;23.90;50.90
7254;DHT22;4060;49.186;9.226;2023-09-19T12:43:29;23.90;50.70
7254;DHT22;4060;49.186;9.226;2023-09-19T12:46:01;24.00;50.80
7254;DHT22;4060;49.186;9.226;2023-09-19T12:48:32;24.00;50.60
7254;DHT22;4060;49.186;9.226;2023-09-19T12:51:03;24.00;50.50
7254;DHT22;4060;49.186;9.226;2023-09-19T12:53:35;24.00;50.30
7254;DHT22;4060;49.186;9.226;2023-09-19T12:56:07;24.00;50.30
7254;DHT22;4060;49.186;9.226;2023-09-19T12:58:51;24.10;50.30
7254;DHT22;4060;49.186;9.226;2023-09-19T13:01:24;24.10;50.30
7254;DHT22;4060;49.186;9.226;2023-09-19T13:04:12;24.10;50.30
7254;DHT22;4060;49.186;9.226;2023-09-19T13:06:45;24.10;50.30
7254;DHT22;4060;49.186;9.226;2023-09-19T13:09:16;24.20;50.30
7254;DHT22;4060;49.186;9.226;2023-09-19T13:11:48;24.20;50.20
7254;DHT22;4060;49.186;9.226;2023-09-19T13:14:19;24.20;50.00
7254;DHT22;4060;49.186;9.226;2023-09-19T13:17:00;24.20;49.90
7254;DHT22;4060;49.186;9.226;2023-09-19T13:19:40;24.20;49.70
7254;DHT22;4060;49.186;9.226;2023-09-19T13:22:38;24.20;49.50
7254;DHT22;4060;49.186;9.226;2023-09-19T13:25:11;24.30;49.50
7254;DHT22;4060;49.186;9.226;2023-09-19T13:27:42;24.30;49.50
7254;DHT22;4060;49.186;9.226;2023-09-19T13:30:13;24.30;49.40
7254;DHT22;4060;49.186;9.226;2023-09-19T13:32:44;24.30;49.40
7254;DHT22;4060;49.186;9.226;2023-09-19T13:35:14;24.40;49.40
7254;DHT22;4060;49.186;9.226;2023-09-19T13:37:44;24.40;49.30
7254;DHT22;4060;49.186;9.226;2023-09-19T13:40:16;24.40;49.20
7254;DHT22;4060;49.186;9.226;2023-09-19T13:42:47;24.40;49.50
7254;DHT22;4060;49.186;9.226;2023-09-19T13:45:21;24.40;48.80
7254;DHT22;4060;49.186;9.226;2023-09-19T13:47:54;24.50;48.80
7254;DHT22;4060;49.186;9.226;2023-09-19T13:50:23;24.50;48.80
7254;DHT22;4060;49.186;9.226;2023-09-19T13:52:55;24.50;48.80
7254;DHT22;4060;49.186;9.226;2023-09-19T13:55:24;24.50;48.90
7254;DHT22;4060;49.186;9.226;2023-09-19T13:57:53;24.50;48.90
7254;DHT22;4060;49.186;9.226;2023-09-19T14:00:23;24.50;48.80
7254;DHT22;4060;49.186;9.226;2023-09-19T14:02:54;24.60;48.80
7254;DHT22;4060;49.186;9.226;2023-09-19T14:05:24;24.60;48.80
7254;DHT22;4060;49.186;9.226;2023-09-19T14:07:55;24.60;48.70
7254;DHT22;4060;49.186;9.226;2023-09-19T14:10:26;24.60;48.40
7254;DHT22;4060;49.186;9.226;2023-09-19T14:12:57;24.60;48.40
7254;DHT22;4060;49.186;9.226;2023-09-19T14:15:27;24.60;48.30
7254;DHT22;4060;49.186;9.226;2023-09-19T14:18:00;24.70;48.20
7254;DHT22;4060;49.186;9.226;2023-09-19T14:20:29;24.70;48.00
7254;DHT22;4060;49.186;9.226;2023-09-19T14:22:59;24.70;48.00
7254;DHT22;4060;49.186;9.226;2023-09-19T14:25:29;24.70;47.90
7254;DHT22;4060;49.186;9.226;2023-09-19T14:27:59;24.70;47.90
7254;DHT22;4060;49.186;9.226;2023-09-19T14:30:29;24.80;47.90
7254;DHT22;4060;49.186;9.226;2023-09-19T14:33:01;24.80;47.80
7254;DHT22;4060;49.186;9.226;2023-09-19T14:35:31;24.80;47.60
7254;DHT22;4060;49.186;9.226;2023-09-19T14:38:00;24.80;47.50
7254;DHT22;4060;49.186;9.226;2023-09-19T14:40:30;24.80;47.40
7254;DHT22;4060;49.186;9.226;2023-09-19T14:42:59;24.80;47.40
7254;DHT22;4060;49.186;9.226;2023-09-19T14:45:29;24.80;47.30
7254;DHT22;4060;49.186;9.226;2023-09-19T14:48:00;24.80;47.30
7254;DHT22;4060;49.186;9.226;2023-09-19T14:50:32;24.80;47.00
7254;DHT22;4060;49.186;9.226;2023-09-19T14:53:01;24.80;47.00
7254;DHT22;4060;49.186;9.226;2023-09-19T14:55:37;24.80;47.00
7254;DHT22;4060;49.186;9.226;2023-09-19T14:58:08;24.90;47.00
7254;DHT22;4060;49.186;9.226;2023-09-19T15:00:38;24.90;46.90
7254;DHT22;4060;49.186;9.226;2023-09-19T15:03:10;24.90;46.80
7254;DHT22;4060;49.186;9.226;2023-09-19T15:05:39;24.90;46.70
7254;DHT22;4060;49.186;9.226;2023-09-19T15:08:08;24.90;46.80
7254;DHT22;4060;49.186;9.226;2023-09-19T15:10:37;24.90;46.80
7254;DHT22;4060;49.186;9.226;2023-09-19T15:13:07;24.90;46.70
7254;DHT22;4060;49.186;9.226;2023-09-19T15:15:37;24.90;46.60
7254;DHT22;4060;49.186;9.226;2023-09-19T15:18:09;24.90;46.50
7254;DHT22;4060;49.186;9.226;2023-09-19T15:20:44;24.90;46.40
7254;DHT22;4060;49.186;9.226;2023-09-19T15:23:14;24.90;46.30
7254;DHT22;4060;49.186;9.226;2023-09-19T15:25:48;24.90;46.20
7254;DHT22;4060;49.186;9.226;2023-09-19T15:28:18;24.90;46.20
7254;DHT22;4060;49.186;9.226;2023-09-19T15:30:49;24.90;46.20
7254;DHT22;4060;49.186;9.226;2023-09-19T15:33:21;24.90;46.20
7254;DHT22;4060;49.186;9.226;2023-09-19T15:35:50;24.90;46.20
7254;DHT22;4060;49.186;9.226;2023-09-19T15:38:20;24.90;46.40
7254;DHT22;4060;49.186;9.226;2023-09-19T15:40:50;24.90;46.40
7254;DHT22;4060;49.186;9.226;2023-09-19T15:43:19;24.90;46.40
7254;DHT22;4060;49.186;9.226;2023-09-19T15:45:50;24.90;46.40
7254;DHT22;4060;49.186;9.226;2023-09-19T15:48:21;24.90;46.40
7254;DHT22;4060;49.186;9.226;2023-09-19T15:50:51;24.90;46.30
7254;DHT22;4060;49.186;9.226;2023-09-19T15:53:20;24.90;46.30
7254;DHT22;4060;49.186;9.226;2023-09-19T15:55:50;24.90;46.40
7254;DHT22;4060;49.186;9.226;2023-09-19T15:58:20;24.90;46.40
7254;DHT22;4060;49.186;9.226;2023-09-19T16:00:50;25.00;46.40
7254;DHT22;4060;49.186;9.226;2023-09-19T16:03:23;25.10;46.30
7254;DHT22;4060;49.186;9.226;2023-09-19T16:05:54;25.30;46.10
7254;DHT22;4060;49.186;9.226;2023-09-19T16:08:23;25.60;46.00
7254;DHT22;4060;49.186;9.226;2023-09-19T16:10:54;25.80;45.70
7254;DHT22;4060;49.186;9.226;2023-09-19T16:13:24;26.10;45.40
7254;DHT22;4060;49.186;9.226;2023-09-19T16:15:55;26.30;45.00
7254;DHT22;4060;49.186;9.226;2023-09-19T16:18:27;26.50;44.60
7254;DHT22;4060;49.186;9.226;2023-09-19T16:21:02;26.70;44.30
7254;DHT22;4060;49.186;9.226;2023-09-19T16:23:31;26.80;44.00
7254;DHT22;4060;49.186;9.226;2023-09-19T16:26:03;26.90;43.80
7254;DHT22;4060;49.186;9.226;2023-09-19T16:28:33;27.00;43.50
7254;DHT22;4060;49.186;9.226;2023-09-19T16:31:03;27.10;43.40
7254;DHT22;4060;49.186;9.226;2023-09-19T16:33:36;27.20;43.20
7254;DHT22;4060;49.186;9.226;2023-09-19T16:36:09;27.20;43.50
7254;DHT22;4060;49.186;9.226;2023-09-19T16:38:40;27.30;42.80
7254;DHT22;4060;49.186;9.226;2023-09-19T16:41:09;27.30;42.70
7254;DHT22;4060;49.186;9.226;2023-09-19T16:43:39;27.30;42.60
7254;DHT22;4060;49.186;9.226;2023-09-19T16:46:10;27.40;42.50